createdAt,value
2019-03-10T00:06:20.263Z,5.70
2019-03-10T00:16:25.692Z,5.47
2019-03-10T00:26:31.200Z,5.57
2019-03-10T00:36:36.727Z,5.73
2019-03-10T00:47:44.331Z,5.53
2019-03-10T00:57:49.979Z,5.20
2019-03-10T01:07:55.474Z,4.70
2019-03-10T01:18:01.632Z,4.83
2019-03-10T01:28:07.414Z,2.40
2019-03-10T01:38:13.311Z,1.93
2019-03-10T01:48:18.745Z,1.67
2019-03-10T01:58:24.111Z,1.80
2019-03-10T02:08:29.693Z,1.73
2019-03-10T02:18:36.406Z,1.60
2019-03-10T02:28:41.986Z,2.43
2019-03-10T02:38:47.316Z,2.63
2019-03-10T02:48:52.741Z,2.20
2019-03-10T02:58:58.236Z,1.50
2019-03-10T03:09:04.439Z,1.70
2019-03-10T03:19:11.484Z,1.63
2019-03-10T03:29:16.831Z,1.47
2019-03-10T03:39:34.111Z,1.63
2019-03-10T03:49:40.024Z,1.97
2019-03-10T03:59:45.387Z,1.80
2019-03-10T04:09:50.693Z,1.57
2019-03-10T04:19:56.394Z,1.37
2019-03-10T04:30:01.791Z,2.00
2019-03-10T04:40:07.622Z,2.47
2019-03-10T04:50:12.945Z,2.67
2019-03-10T05:00:18.292Z,2.87
2019-03-10T05:10:25.164Z,2.63
2019-03-10T05:20:30.746Z,2.60
2019-03-10T05:30:36.113Z,3.13
2019-03-10T05:40:42.054Z,2.40
2019-03-10T05:50:47.541Z,4.67
2019-03-10T06:00:53.203Z,1.70
2019-03-10T06:10:58.651Z,2.10
2019-03-10T06:21:05.057Z,2.00
2019-03-10T06:31:10.389Z,2.20
2019-03-10T06:41:15.709Z,2.60
2019-03-10T06:51:20.991Z,2.30
2019-03-10T07:01:26.403Z,2.60
2019-03-10T07:11:31.941Z,2.00
2019-03-10T07:21:37.323Z,2.03
2019-03-10T07:31:47.592Z,2.40
2019-03-10T07:42:06.293Z,2.40
2019-03-10T07:52:42.705Z,2.03
2019-03-10T08:02:54.855Z,2.20
2019-03-10T08:13:06.707Z,2.17
2019-03-10T08:23:49.557Z,2.43
2019-03-10T08:34:12.277Z,2.80
2019-03-10T08:44:35.250Z,2.00
2019-03-10T08:54:48.085Z,2.30
2019-03-10T09:05:10.725Z,3.20
2019-03-10T09:15:25.347Z,2.63
2019-03-10T09:25:52.789Z,3.53
2019-03-10T09:36:26.210Z,2.40
2019-03-10T09:46:39.988Z,2.43
2019-03-10T09:56:51.882Z,2.67
2019-03-10T10:07:31.101Z,2.70
2019-03-10T10:17:58.162Z,2.50
2019-03-10T10:28:25.530Z,2.53
2019-03-10T10:38:55.008Z,2.67
2019-03-10T10:49:14.716Z,2.57
2019-03-10T10:59:42.460Z,2.57
2019-03-10T11:10:06.784Z,2.37
2019-03-10T11:20:34.510Z,3.00
2019-03-10T11:30:51.712Z,2.70
2019-03-10T11:41:34.882Z,3.53
2019-03-10T11:51:58.251Z,3.77
2019-03-10T12:02:22.660Z,2.73
2019-03-10T12:12:28.391Z,3.03
2019-03-10T12:22:33.888Z,3.67
2019-03-10T12:32:39.523Z,3.00
2019-03-10T12:42:45.044Z,3.20
2019-03-10T12:52:50.402Z,2.80
2019-03-10T13:02:55.874Z,3.70
2019-03-10T13:13:01.623Z,4.37
2019-03-10T13:23:07.178Z,3.10
2019-03-10T13:33:13.233Z,3.27
2019-03-10T13:43:18.659Z,3.63
2019-03-10T13:53:24.154Z,3.63
2019-03-10T14:03:29.601Z,3.47
2019-03-10T14:13:36.751Z,2.87
2019-03-10T14:23:42.134Z,5.33
2019-03-10T14:33:47.867Z,3.40
2019-03-10T14:43:53.487Z,6.73
2019-03-10T14:53:59.828Z,3.80
2019-03-10T15:04:05.925Z,3.10
2019-03-10T15:14:11.634Z,4.90
2019-03-10T15:24:16.992Z,3.77
2019-03-10T15:34:22.917Z,3.23
2019-03-10T15:44:28.275Z,3.27
2019-03-10T15:54:34.758Z,9.73
2019-03-10T16:04:40.423Z,3.53
2019-03-10T16:14:46.092Z,3.67
2019-03-10T16:24:51.355Z,3.57
2019-03-10T16:34:56.822Z,6.00
2019-03-10T16:45:02.971Z,3.90
2019-03-10T16:55:09.594Z,4.70
2019-03-10T17:05:15.827Z,5.60
2019-03-10T17:15:21.823Z,5.03
2019-03-10T17:25:27.323Z,5.10
2019-03-10T17:35:32.751Z,6.20
2019-03-10T17:45:38.306Z,5.23
2019-03-10T17:55:44.200Z,5.67
2019-03-10T18:05:49.673Z,4.73
2019-03-10T18:15:55.254Z,5.23
2019-03-10T18:26:00.879Z,5.13
2019-03-10T18:36:06.469Z,6.33
2019-03-10T18:46:11.900Z,5.10
2019-03-10T18:56:17.462Z,4.90
2019-03-10T19:06:22.750Z,5.50
2019-03-10T19:16:29.675Z,6.50
2019-03-10T19:26:35.496Z,5.53
2019-03-10T19:36:40.794Z,6.90
2019-03-10T19:46:46.434Z,7.10
2019-03-10T19:56:52.035Z,8.93
2019-03-10T20:06:58.451Z,9.87
2019-03-10T20:17:03.995Z,9.57
2019-03-10T20:27:10.083Z,10.20
2019-03-10T20:37:16.625Z,10.63
2019-03-10T20:47:23.389Z,12.00
2019-03-10T20:57:28.867Z,9.17
2019-03-10T21:07:35.211Z,9.17
2019-03-10T21:17:40.918Z,9.40
2019-03-10T21:27:47.280Z,11.57
2019-03-10T21:37:53.095Z,13.37
2019-03-10T21:47:58.548Z,13.23
2019-03-10T21:58:04.394Z,14.83
2019-03-10T22:08:09.811Z,14.77
2019-03-10T22:18:15.658Z,14.47
2019-03-10T22:28:21.377Z,14.53
2019-03-10T22:38:26.795Z,13.63
2019-03-10T22:48:32.145Z,14.07
2019-03-10T22:58:37.629Z,17.37
2019-03-10T23:08:43.314Z,14.87
2019-03-10T23:18:48.727Z,17.90
2019-03-10T23:28:54.256Z,18.33
2019-03-10T23:38:59.778Z,17.70
2019-03-10T23:49:05.248Z,17.00
2019-03-10T23:59:10.742Z,15.37
